createdAt,value
2018-11-13T00:02:06.179Z,16.27
2018-11-13T00:04:36.440Z,16.67
2018-11-13T00:07:06.748Z,14.50
2018-11-13T00:09:38.030Z,15.87
2018-11-13T00:12:08.075Z,15.40
2018-11-13T00:14:39.810Z,15.40
2018-11-13T00:17:10.863Z,16.20
2018-11-13T00:19:40.963Z,16.70
2018-11-13T00:22:10.795Z,15.47
2018-11-13T00:24:41.790Z,15.33
2018-11-13T00:27:12.410Z,16.50
2018-11-13T00:29:43.277Z,15.10
2018-11-13T00:32:16.064Z,17.47
2018-11-13T00:34:46.326Z,16.30
2018-11-13T00:37:17.399Z,15.80
2018-11-13T00:39:47.554Z,17.10
2018-11-13T00:42:18.267Z,17.13
2018-11-13T00:44:48.903Z,19.23
2018-11-13T00:47:19.709Z,17.83
2018-11-13T00:49:49.875Z,17.57
2018-11-13T00:52:19.903Z,17.77
2018-11-13T00:54:50.344Z,18.77
2018-11-13T00:57:20.275Z,19.70
2018-11-13T00:59:50.414Z,18.10
2018-11-13T01:02:21.562Z,18.70
2018-11-13T01:04:52.739Z,18.97
2018-11-13T01:07:22.577Z,19.97
2018-11-13T01:09:52.562Z,21.20
2018-11-13T01:12:22.503Z,20.10
2018-11-13T01:14:52.924Z,20.47
2018-11-13T01:17:22.898Z,22.40
2018-11-13T01:19:53.394Z,22.07
2018-11-13T01:22:23.471Z,22.63
2018-11-13T01:24:53.380Z,22.73
2018-11-13T01:27:23.627Z,21.63
2018-11-13T01:29:56.622Z,20.70
2018-11-13T01:32:29.198Z,21.80
2018-11-13T01:34:59.731Z,21.00
2018-11-13T01:37:29.948Z,22.50
2018-11-13T01:39:59.986Z,22.67
2018-11-13T01:42:29.963Z,22.87
2018-11-13T01:45:00.332Z,23.20
2018-11-13T01:47:30.149Z,23.00
2018-11-13T01:50:01.113Z,24.23
2018-11-13T01:52:32.361Z,23.83
2018-11-13T01:55:03.538Z,25.83
2018-11-13T01:57:33.845Z,25.77
2018-11-13T02:00:08.257Z,24.20
2018-11-13T02:02:38.272Z,24.83
2018-11-13T02:05:08.520Z,24.40
2018-11-13T02:07:38.835Z,27.10
2018-11-13T02:10:09.274Z,25.50
2018-11-13T02:12:39.654Z,26.07
2018-11-13T02:15:09.920Z,27.33
2018-11-13T02:17:40.079Z,27.13
2018-11-13T02:20:14.160Z,25.67
2018-11-13T02:22:44.381Z,27.10
2018-11-13T02:25:15.954Z,27.97
2018-11-13T02:27:46.351Z,28.03
2018-11-13T02:30:19.554Z,25.53
2018-11-13T02:32:49.873Z,26.23
2018-11-13T02:35:21.230Z,25.23
2018-11-13T02:37:51.863Z,24.83
2018-11-13T02:40:21.942Z,26.47
2018-11-13T02:42:51.886Z,25.83
2018-11-13T02:45:22.144Z,26.27
2018-11-13T02:47:52.649Z,26.10
2018-11-13T02:50:22.759Z,25.10
2018-11-13T02:52:53.058Z,25.37
2018-11-13T02:55:22.876Z,26.17
2018-11-13T02:57:53.078Z,26.47
2018-11-13T03:00:24.161Z,26.07
2018-11-13T03:02:54.211Z,25.23
2018-11-13T03:05:24.327Z,25.80
2018-11-13T03:07:54.581Z,25.67
2018-11-13T03:10:24.689Z,24.53
2018-11-13T03:12:54.758Z,23.63
2018-11-13T03:15:24.814Z,24.90
2018-11-13T03:17:54.547Z,23.87
2018-11-13T03:20:24.672Z,24.93
2018-11-13T03:22:55.293Z,24.00
2018-11-13T03:25:25.287Z,24.43
2018-11-13T03:27:55.187Z,23.40
2018-11-13T03:30:26.275Z,24.90
2018-11-13T03:32:56.302Z,23.40
2018-11-13T03:35:26.290Z,21.77
2018-11-13T03:37:58.113Z,23.50
2018-11-13T03:40:28.094Z,22.57
2018-11-13T03:42:59.170Z,23.50
2018-11-13T03:45:29.204Z,22.33
2018-11-13T03:47:59.072Z,23.13
2018-11-13T03:50:29.131Z,21.60
2018-11-13T03:52:59.552Z,22.63
2018-11-13T03:55:29.939Z,25.13
2018-11-13T03:57:59.787Z,22.97
2018-11-13T04:00:29.688Z,23.17
2018-11-13T04:03:00.911Z,23.20
2018-11-13T04:05:31.031Z,23.50
2018-11-13T04:08:02.732Z,22.00
2018-11-13T04:10:32.601Z,21.70
2018-11-13T04:13:02.772Z,22.33
2018-11-13T04:15:32.934Z,22.50
2018-11-13T04:18:02.902Z,22.70
2018-11-13T04:20:32.907Z,21.60
2018-11-13T04:23:03.686Z,21.87
2018-11-13T04:25:33.718Z,23.23
2018-11-13T04:28:03.509Z,21.47
2018-11-13T04:30:33.439Z,22.23
2018-11-13T04:33:03.638Z,20.57
2018-11-13T04:35:33.861Z,20.70
2018-11-13T04:38:04.417Z,20.80
2018-11-13T04:40:34.406Z,19.20
2018-11-13T04:43:04.467Z,18.97
2018-11-13T04:45:35.319Z,19.57
2018-11-13T04:48:05.268Z,20.47
2018-11-13T04:50:35.327Z,19.57
2018-11-13T04:53:05.306Z,18.33
2018-11-13T04:55:36.698Z,18.93
2018-11-13T04:58:06.831Z,17.00
2018-11-13T05:00:36.826Z,17.70
2018-11-13T05:03:07.091Z,17.60
2018-11-13T05:05:37.558Z,17.70
2018-11-13T05:08:07.694Z,16.30
2018-11-13T05:10:37.726Z,16.53
2018-11-13T05:13:07.738Z,15.33
2018-11-13T05:15:38.216Z,15.77
2018-11-13T05:18:09.119Z,16.40
2018-11-13T05:20:39.642Z,16.40
2018-11-13T05:23:11.382Z,16.87
2018-11-13T05:25:41.290Z,16.07
2018-11-13T05:28:11.867Z,16.17
2018-11-13T05:30:42.139Z,16.93
2018-11-13T05:33:12.240Z,15.30
2018-11-13T05:35:42.483Z,16.20
2018-11-13T05:38:12.763Z,15.17
2018-11-13T05:40:43.440Z,15.60
2018-11-13T05:43:13.802Z,14.50
2018-11-13T05:45:43.790Z,14.23
2018-11-13T05:48:14.362Z,11.77
2018-11-13T05:50:45.240Z,14.60
2018-11-13T05:53:15.583Z,13.40
2018-11-13T05:55:46.250Z,12.70
2018-11-13T05:58:17.710Z,12.07
2018-11-13T06:00:49.083Z,11.53
2018-11-13T06:03:19.733Z,12.73
2018-11-13T06:05:49.971Z,12.83
2018-11-13T06:08:20.358Z,13.13
2018-11-13T06:10:50.461Z,12.77
2018-11-13T06:13:20.643Z,12.00
2018-11-13T06:15:51.303Z,13.50
2018-11-13T06:18:21.480Z,12.20
2018-11-13T06:20:53.380Z,13.10
2018-11-13T06:23:23.758Z,14.20
2018-11-13T06:25:55.774Z,12.93
2018-11-13T06:28:30.695Z,13.43
2018-11-13T06:31:01.556Z,11.83
2018-11-13T06:33:31.417Z,12.10
2018-11-13T06:36:02.511Z,13.80
2018-11-13T06:38:33.287Z,12.37
2018-11-13T06:41:04.628Z,12.30
2018-11-13T06:43:35.243Z,13.17
2018-11-13T06:46:06.091Z,12.13
2018-11-13T06:48:36.544Z,12.27
2018-11-13T06:51:07.079Z,12.33
2018-11-13T06:53:49.241Z,12.37
2018-11-13T06:56:19.309Z,13.03
2018-11-13T06:58:49.430Z,12.63
2018-11-13T07:01:19.626Z,12.03
2018-11-13T07:03:49.271Z,12.87
2018-11-13T07:06:20.159Z,11.50
2018-11-13T07:08:50.007Z,12.93
2018-11-13T07:11:20.181Z,11.80
2018-11-13T07:13:51.604Z,11.90
2018-11-13T07:16:21.621Z,11.23
2018-11-13T07:18:52.331Z,13.10
2018-11-13T07:21:22.310Z,12.60
2018-11-13T07:23:52.267Z,10.53
2018-11-13T07:26:23.266Z,11.63
2018-11-13T07:28:54.045Z,10.43
2018-11-13T07:31:25.231Z,11.40
2018-11-13T07:33:55.290Z,11.27
2018-11-13T07:36:27.071Z,11.40
2018-11-13T07:38:57.174Z,10.60
2018-11-13T07:41:27.455Z,11.57
2018-11-13T07:43:57.555Z,11.00
2018-11-13T07:46:29.082Z,9.90
2018-11-13T07:49:00.295Z,9.43
2018-11-13T07:51:31.099Z,10.33
2018-11-13T07:54:01.621Z,10.43
2018-11-13T07:56:32.018Z,9.47
2018-11-13T07:59:02.475Z,10.07
2018-11-13T08:01:32.686Z,9.10
2018-11-13T08:04:05.408Z,9.13
2018-11-13T08:06:36.412Z,8.33
2018-11-13T08:09:10.349Z,8.93
2018-11-13T08:11:41.705Z,8.83
2018-11-13T08:14:13.117Z,8.80
2018-11-13T08:16:45.144Z,7.80
2018-11-13T08:19:15.107Z,8.37
2018-11-13T08:21:46.956Z,8.20
2018-11-13T08:24:16.827Z,8.50
2018-11-13T08:26:46.877Z,7.60
2018-11-13T08:29:17.428Z,7.40
2018-11-13T08:31:48.287Z,7.10
2018-11-13T08:34:19.062Z,8.50
2018-11-13T08:36:48.882Z,7.90
2018-11-13T08:39:19.588Z,7.87
2018-11-13T08:41:49.795Z,8.50
2018-11-13T08:44:22.286Z,8.57
2018-11-13T08:46:52.297Z,8.63
2018-11-13T08:49:22.421Z,9.17
2018-11-13T08:51:52.790Z,9.40
2018-11-13T08:54:24.036Z,9.30
2018-11-13T08:56:53.867Z,10.03
2018-11-13T08:59:24.038Z,10.67
2018-11-13T09:01:55.501Z,10.13
2018-11-13T09:04:32.335Z,10.80
2018-11-13T09:07:03.524Z,11.27
2018-11-13T09:09:34.227Z,12.20
2018-11-13T09:12:04.240Z,11.30
2018-11-13T09:14:34.327Z,12.37
2018-11-13T09:17:04.844Z,12.30
2018-11-13T09:19:35.355Z,11.93
2018-11-13T09:22:06.521Z,11.57
2018-11-13T09:24:37.764Z,10.70
2018-11-13T09:27:08.370Z,9.90
2018-11-13T09:29:40.132Z,9.80
2018-11-13T09:32:10.296Z,8.87
2018-11-13T09:34:40.264Z,9.10
2018-11-13T09:37:10.090Z,8.47
2018-11-13T09:39:41.521Z,8.00
2018-11-13T09:42:12.646Z,8.50
2018-11-13T09:44:42.795Z,8.23
2018-11-13T09:47:13.094Z,8.13
2018-11-13T09:49:43.297Z,7.77
2018-11-13T09:52:13.569Z,8.87
2018-11-13T09:54:43.566Z,7.17
2018-11-13T09:57:15.136Z,7.00
2018-11-13T09:59:44.911Z,7.43
2018-11-13T10:02:16.010Z,7.23
2018-11-13T10:04:46.674Z,6.20
2018-11-13T10:07:16.859Z,7.07
2018-11-13T10:09:47.161Z,6.70
2018-11-13T10:12:17.850Z,6.30
2018-11-13T10:14:48.177Z,5.83
2018-11-13T10:17:19.443Z,5.37
2018-11-13T10:19:50.470Z,5.53
2018-11-13T10:22:20.788Z,6.20
2018-11-13T10:24:50.532Z,5.50
2018-11-13T10:27:21.517Z,5.67
2018-11-13T10:29:52.418Z,5.10
2018-11-13T10:32:23.380Z,5.10
2018-11-13T10:34:53.713Z,5.70
2018-11-13T10:37:25.090Z,4.33
2018-11-13T10:39:55.832Z,4.40
2018-11-13T10:42:26.124Z,4.67
2018-11-13T10:44:56.048Z,4.40
2018-11-13T10:47:27.334Z,4.57
2018-11-13T10:49:57.870Z,4.60
2018-11-13T10:52:29.247Z,4.53
2018-11-13T10:54:59.564Z,4.33
2018-11-13T10:57:30.900Z,4.53
2018-11-13T11:00:01.879Z,5.30
2018-11-13T11:02:39.472Z,4.30
2018-11-13T11:05:09.706Z,4.23
2018-11-13T11:07:39.495Z,4.67
2018-11-13T11:10:09.930Z,3.53
2018-11-13T11:12:42.021Z,4.30
2018-11-13T11:15:14.021Z,4.17
2018-11-13T11:17:45.068Z,4.23
2018-11-13T11:20:15.837Z,4.37
2018-11-13T11:22:46.305Z,4.27
2018-11-13T11:25:17.135Z,3.90
2018-11-13T11:27:49.000Z,4.37
2018-11-13T11:30:19.327Z,4.87
2018-11-13T11:32:50.591Z,4.43
2018-11-13T11:35:21.996Z,5.37
2018-11-13T11:37:52.071Z,4.40
2018-11-13T11:40:22.482Z,4.30
2018-11-13T11:42:54.364Z,4.77
2018-11-13T11:45:24.760Z,4.20
2018-11-13T11:47:55.027Z,4.40
2018-11-13T11:50:25.738Z,3.97
2018-11-13T11:53:01.441Z,4.27
2018-11-13T11:55:31.770Z,4.10
2018-11-13T11:58:01.994Z,4.23
2018-11-13T12:00:36.255Z,3.80
2018-11-13T12:03:08.562Z,3.97
2018-11-13T12:05:39.162Z,3.50
2018-11-13T12:08:10.546Z,3.10
2018-11-13T12:10:42.974Z,3.53
2018-11-13T12:13:13.443Z,3.20
2018-11-13T12:15:44.117Z,3.47
2018-11-13T12:18:15.128Z,3.30
2018-11-13T12:20:45.199Z,3.57
2018-11-13T12:23:16.507Z,3.03
2018-11-13T12:25:48.049Z,3.20
2018-11-13T12:28:18.955Z,3.20
2018-11-13T12:30:49.171Z,2.60
2018-11-13T12:33:19.855Z,3.00
2018-11-13T12:35:50.479Z,2.90
2018-11-13T12:38:20.909Z,3.03
2018-11-13T12:40:51.065Z,3.30
2018-11-13T12:43:21.116Z,2.63
2018-11-13T12:45:51.950Z,2.80
2018-11-13T12:48:24.421Z,2.80
2018-11-13T12:51:03.510Z,3.60
2018-11-13T12:53:37.882Z,2.20
2018-11-13T12:56:10.761Z,2.87
2018-11-13T12:58:40.912Z,2.60
2018-11-13T13:01:11.907Z,2.40
2018-11-13T13:03:42.639Z,2.53
2018-11-13T13:06:13.967Z,2.70
2018-11-13T13:08:45.079Z,2.23
2018-11-13T13:11:15.243Z,1.80
2018-11-13T13:13:46.867Z,2.40
2018-11-13T13:16:17.847Z,2.00
2018-11-13T13:18:49.143Z,2.03
2018-11-13T13:21:20.935Z,2.37
2018-11-13T13:23:51.423Z,2.23
2018-11-13T13:26:25.994Z,1.77
2018-11-13T13:28:55.946Z,2.00
2018-11-13T13:31:28.512Z,2.50
2018-11-13T13:33:58.476Z,2.40
2018-11-13T13:36:29.316Z,1.80
2018-11-13T13:38:59.843Z,1.97
2018-11-13T13:41:29.678Z,2.40
2018-11-13T13:44:00.673Z,2.60
2018-11-13T13:46:31.031Z,2.37
2018-11-13T13:49:02.555Z,2.60
2018-11-13T13:51:33.033Z,3.00
2018-11-13T13:54:06.378Z,2.30
2018-11-13T13:56:37.155Z,2.43
2018-11-13T13:59:07.341Z,2.60
2018-11-13T14:02:19.247Z,2.63
2018-11-13T14:05:25.026Z,2.83
2018-11-13T14:07:57.035Z,2.50
2018-11-13T14:10:28.553Z,3.00
2018-11-13T14:12:58.607Z,3.30
2018-11-13T14:15:31.203Z,3.23
2018-11-13T14:18:02.531Z,2.97
2018-11-13T14:20:34.027Z,3.23
2018-11-13T14:23:05.963Z,3.60
2018-11-13T14:25:35.960Z,2.80
2018-11-13T14:28:05.884Z,3.90
2018-11-13T14:30:38.614Z,3.17
2018-11-13T14:33:11.411Z,3.60
2018-11-13T14:35:42.612Z,3.17
2018-11-13T14:38:13.717Z,3.37
2018-11-13T14:40:48.282Z,3.60
2018-11-13T14:43:20.234Z,3.30
2018-11-13T14:45:50.673Z,3.50
2018-11-13T14:48:25.578Z,3.67
2018-11-13T14:50:55.381Z,3.70
2018-11-13T14:53:26.579Z,3.90
2018-11-13T14:55:57.072Z,3.00
2018-11-13T14:58:27.918Z,2.90
2018-11-13T15:00:58.926Z,3.80
2018-11-13T15:03:29.184Z,3.47
2018-11-13T15:06:00.237Z,3.80
2018-11-13T15:08:31.562Z,3.10
2018-11-13T15:11:03.436Z,3.10
2018-11-13T15:13:33.502Z,3.57
2018-11-13T15:16:06.427Z,3.60
2018-11-13T15:18:36.982Z,3.37
2018-11-13T15:21:08.916Z,3.70
2018-11-13T15:23:39.462Z,3.73
2018-11-13T15:26:10.515Z,3.63
2018-11-13T15:28:42.569Z,4.43
2018-11-13T15:31:12.658Z,3.50
2018-11-13T15:33:43.415Z,4.03
2018-11-13T15:36:13.522Z,3.70
2018-11-13T15:38:44.934Z,3.20
2018-11-13T15:41:16.766Z,3.70
2018-11-13T15:43:47.802Z,4.20
2018-11-13T15:46:26.314Z,3.60
2018-11-13T15:49:00.245Z,2.97
2018-11-13T15:51:31.154Z,3.93
2018-11-13T15:54:02.079Z,3.40
2018-11-13T15:56:32.830Z,3.63
2018-11-13T15:59:04.102Z,3.70
2018-11-13T16:01:34.292Z,3.60
2018-11-13T16:04:05.922Z,3.97
2018-11-13T16:06:37.348Z,3.50
2018-11-13T16:09:11.380Z,3.03
2018-11-13T16:11:42.126Z,3.50
2018-11-13T16:14:13.576Z,3.40
2018-11-13T16:16:43.865Z,3.77
2018-11-13T16:19:15.811Z,3.57
2018-11-13T16:21:46.886Z,3.47
2018-11-13T16:24:17.648Z,3.37
2018-11-13T16:26:47.722Z,3.57
2018-11-13T16:29:19.259Z,3.40
2018-11-13T16:31:49.658Z,3.60
2018-11-13T16:34:20.298Z,3.80
2018-11-13T16:36:52.493Z,3.73
2018-11-13T16:39:23.618Z,3.60
2018-11-13T16:41:58.986Z,3.70
2018-11-13T16:44:31.987Z,3.30
2018-11-13T16:47:06.963Z,4.07
2018-11-13T16:49:40.708Z,3.70
2018-11-13T16:52:17.013Z,3.73
2018-11-13T16:54:53.108Z,3.70
2018-11-13T16:57:27.141Z,4.43
2018-11-13T17:00:00.588Z,4.33
2018-11-13T17:02:34.815Z,3.87
2018-11-13T17:05:05.523Z,3.97
2018-11-13T17:07:38.182Z,3.87
2018-11-13T17:10:14.651Z,3.93
2018-11-13T17:12:46.710Z,4.13
2018-11-13T17:15:22.680Z,4.20
2018-11-13T17:17:54.236Z,4.47
2018-11-13T17:20:24.991Z,4.50
2018-11-13T17:22:57.426Z,4.80
2018-11-13T17:25:32.263Z,4.73
2018-11-13T17:28:03.371Z,4.40
2018-11-13T17:30:36.742Z,4.20
2018-11-13T17:33:08.407Z,4.60
2018-11-13T17:35:43.883Z,4.23
2018-11-13T17:38:14.241Z,4.60
2018-11-13T17:40:44.540Z,3.50
2018-11-13T17:43:15.809Z,3.83
2018-11-13T17:45:46.471Z,5.07
2018-11-13T17:48:17.383Z,4.60
2018-11-13T17:50:49.571Z,4.20
2018-11-13T17:53:22.236Z,4.47
2018-11-13T17:55:53.192Z,3.97
2018-11-13T17:58:30.404Z,4.10
2018-11-13T18:01:03.209Z,4.43
2018-11-13T18:03:35.436Z,4.40
2018-11-13T18:06:08.489Z,4.37
2018-11-13T18:08:38.537Z,3.87
2018-11-13T18:11:09.365Z,4.17
2018-11-13T18:13:40.798Z,3.70
2018-11-13T18:16:13.558Z,4.37
2018-11-13T18:18:44.488Z,3.90
2018-11-13T18:21:17.026Z,4.17
2018-11-13T18:23:47.349Z,4.40
2018-11-13T18:26:17.530Z,3.80
2018-11-13T18:28:48.078Z,4.73
2018-11-13T18:31:20.387Z,3.90
2018-11-13T18:33:52.259Z,4.10
2018-11-13T18:36:23.241Z,3.60
2018-11-13T18:38:54.004Z,4.30
2018-11-13T18:41:24.177Z,4.20
2018-11-13T18:43:57.810Z,4.37
2018-11-13T18:46:29.809Z,4.23
2018-11-13T18:49:01.422Z,4.37
2018-11-13T18:51:32.057Z,4.23
2018-11-13T18:54:05.245Z,4.00
2018-11-13T18:56:36.837Z,4.47
2018-11-13T18:59:08.493Z,4.70
2018-11-13T19:01:40.530Z,4.67
2018-11-13T19:04:10.636Z,4.47
2018-11-13T19:06:41.044Z,4.43
2018-11-13T19:09:15.691Z,3.97
2018-11-13T19:11:46.207Z,4.77
2018-11-13T19:14:25.769Z,4.17
2018-11-13T19:16:56.496Z,4.63
2018-11-13T19:19:27.805Z,4.73
2018-11-13T19:22:02.381Z,4.20
2018-11-13T19:24:33.007Z,4.67
2018-11-13T19:27:03.817Z,4.30
2018-11-13T19:29:35.726Z,4.43
2018-11-13T19:32:08.499Z,4.23
2018-11-13T19:34:44.415Z,4.80
2018-11-13T19:37:15.927Z,4.10
2018-11-13T19:39:48.414Z,3.90
2018-11-13T19:42:21.446Z,4.40
2018-11-13T19:44:54.273Z,4.73
2018-11-13T19:47:25.911Z,4.37
2018-11-13T19:49:59.292Z,4.50
2018-11-13T19:52:29.547Z,4.57
2018-11-13T19:55:00.749Z,4.80
2018-11-13T19:57:32.863Z,5.00
2018-11-13T20:00:04.884Z,5.10
2018-11-13T20:02:36.224Z,4.77
2018-11-13T20:05:07.128Z,5.13
2018-11-13T20:07:37.980Z,4.03
2018-11-13T20:10:14.331Z,4.67
2018-11-13T20:12:47.335Z,5.40
2018-11-13T20:15:18.469Z,4.47
2018-11-13T20:17:49.686Z,4.83
2018-11-13T20:20:25.357Z,5.23
2018-11-13T20:22:57.679Z,5.90
2018-11-13T20:25:31.074Z,5.27
2018-11-13T20:28:01.324Z,5.37
2018-11-13T20:30:33.389Z,5.37
2018-11-13T20:33:05.145Z,5.30
2018-11-13T20:35:36.958Z,4.43
2018-11-13T20:38:08.686Z,5.10
2018-11-13T20:40:39.755Z,6.00
2018-11-13T20:43:11.589Z,5.17
2018-11-13T20:45:42.885Z,5.20
2018-11-13T20:48:13.474Z,5.07
2018-11-13T20:50:43.709Z,5.20
2018-11-13T20:53:14.683Z,5.60
2018-11-13T20:55:45.999Z,4.97
2018-11-13T20:58:18.169Z,5.27
2018-11-13T21:00:50.616Z,5.67
2018-11-13T21:03:22.509Z,5.20
2018-11-13T21:05:55.048Z,4.73
2018-11-13T21:08:25.444Z,5.60
2018-11-13T21:11:01.986Z,5.83
2018-11-13T21:13:33.055Z,5.17
2018-11-13T21:16:03.232Z,6.43
2018-11-13T21:18:37.312Z,5.43
2018-11-13T21:21:08.032Z,5.60
2018-11-13T21:23:39.737Z,5.60
2018-11-13T21:26:09.922Z,5.17
2018-11-13T21:28:41.644Z,5.43
2018-11-13T21:31:12.866Z,5.07
2018-11-13T21:33:44.434Z,5.50
2018-11-13T21:36:15.042Z,5.77
2018-11-13T21:38:45.126Z,6.13
2018-11-13T21:41:15.302Z,5.40
2018-11-13T21:43:46.787Z,5.30
2018-11-13T21:46:16.994Z,5.40
2018-11-13T21:48:47.857Z,5.93
2018-11-13T21:51:18.249Z,5.20
2018-11-13T21:53:49.152Z,5.40
2018-11-13T21:56:19.881Z,5.50
2018-11-13T21:58:51.872Z,5.50
2018-11-13T22:01:22.806Z,5.83
2018-11-13T22:03:53.541Z,5.80
2018-11-13T22:06:23.616Z,5.67
2018-11-13T22:08:53.722Z,5.00
2018-11-13T22:11:24.512Z,6.00
2018-11-13T22:13:55.305Z,5.50
2018-11-13T22:16:26.761Z,5.77
2018-11-13T22:18:57.210Z,5.80
2018-11-13T22:21:27.332Z,5.57
2018-11-13T22:23:57.566Z,5.70
2018-11-13T22:26:29.081Z,5.80
2018-11-13T22:29:00.303Z,6.00
2018-11-13T22:31:30.635Z,6.03
2018-11-13T22:34:01.937Z,6.20
2018-11-13T22:36:32.727Z,6.20
2018-11-13T22:39:03.024Z,5.30
2018-11-13T22:41:34.356Z,6.30
2018-11-13T22:44:06.069Z,6.77
2018-11-13T22:46:35.901Z,6.47
2018-11-13T22:49:06.613Z,6.50
2018-11-13T22:51:38.445Z,6.50
2018-11-13T22:54:10.446Z,6.27
2018-11-13T22:56:40.868Z,5.40
2018-11-13T22:59:11.089Z,5.97
2018-11-13T23:01:42.321Z,6.47
2018-11-13T23:04:12.727Z,6.30
2018-11-13T23:06:43.558Z,7.40
2018-11-13T23:09:15.675Z,6.30
2018-11-13T23:11:46.054Z,5.77
2018-11-13T23:14:17.458Z,7.27
2018-11-13T23:16:48.509Z,7.20
2018-11-13T23:19:20.803Z,6.93
2018-11-13T23:21:51.524Z,7.40
2018-11-13T23:24:22.855Z,7.60
2018-11-13T23:26:54.064Z,7.17
2018-11-13T23:29:25.235Z,7.20
2018-11-13T23:31:55.318Z,8.33
2018-11-13T23:34:25.371Z,8.27
2018-11-13T23:36:56.701Z,7.97
2018-11-13T23:39:26.694Z,7.37
2018-11-13T23:41:56.646Z,8.73
2018-11-13T23:44:28.255Z,8.27
2018-11-13T23:46:58.514Z,8.77
2018-11-13T23:49:29.721Z,7.80
2018-11-13T23:52:00.370Z,8.53
2018-11-13T23:54:30.499Z,8.50
2018-11-13T23:57:00.635Z,8.50
2018-11-13T23:59:30.536Z,9.50
